INDIA METEOROLOGICAL DEPARTMENT, R.M.C. NEW DELHI
Dated:23 - 6 - 2017
METARS


Agartala   
VEAT 230230Z 16005KT 5000 BR SCT018 SCT025 30/26 Q1002 NOSIG=
Ahmedabad  
VAAH 230300Z 24009KT 4000 HZ SCT020 BKN080 32/24 Q1004 NOSIG=
Allahabad  
VEAB 230230Z 2903KT 5000 HZ FEW030 34/26 Q1002 NOSIG=
Amritsar   
VIAR 230300Z 00000KT 3000 BR NSC 29/27 Q1003 BECMG 5000 BR=
Aurangabad 
VAAU 230300Z 23003KT 6000 SCT020 SCT025 BKN100 26/23 Q1009 NOSIG=
Bangalore  
VOBL 230300Z 27014KT 9999 FEW012 24/21 Q1013 NOSIG=
Baroda     
VABO 230300Z 25006KT 6000 SCT020 SCT025 BKN080 31/25 Q1004 NOSIG=
Bhopal     
VABP 230300Z 25011KT 6000 NSC 28/22 Q1007 NOSIG=
Bhubaneswar
VEBS 230300Z 31005KT 5000 HZ BKN100 32/26 Q1002 NOSIG=
Bhuntar    
VIBR 230300Z 00000KT 8000 NSC 20/16 Q1010=
Chennai    
VOMM 230330Z 25013KT 5000 HZ FEW020 SCT100 34/21 Q1007 NOSIG=
Coimbatore 
VOCB 230330Z 21012KT 6000 FEW012 27/22 Q1011 NOSIG=
Colombo    
VCBI 230310Z 16004KT 120V210 9999 SCT016 FEW018CB 26/24 Q1011 NOSIG RMK SE/S/SW=
Delhi      
VIDP 230300Z 30003KT 2200 HZ NSC 31/24 Q1003 NOSIG=
Dehradun   
VIDN 230300Z 00000KT 6000 FEW080 28/21 Q1004=
Gauhati    
VEGT 230300Z 00000KT 4000 BR FEW020 SCT100 32/26 Q1003 NOSIG=
Gaya       
VEGY 230230Z NIL=
Goa        
VOGO 230300Z 27010KT 6000 SCT010 FEW022TCU BKN070 27/23 Q1007 NOSIG=
Fursatganj 
VERB 230300Z VRB02KT 4000 HZ FEW020 BKN100 33/24 Q1000=
Hyderabad  
VOHS 230330Z 30012KT 6000 SCT015 BKN100 27/23 Q1010 NOSIG=
Imphal     
VEIM 230200Z 20002KT 4000-RA FEW004 SCT018 BKN090 23/22 Q1007 NOSIG=
Indore     
VAID 230300Z 27012KT 5000 HZ FEW020 SCT100 26/21 Q1008 NOSIG =
Jabalpur   
VAJB 230300Z 27003KT 6000 NSC 29/22 Q1006=
Jaipur     
VIJP 230300Z 21005KT 4000 HZ FEW100 30/21 Q1005 NOSIG=
Khajuraho  
VEKO 230300Z 25006KT 6000 FEW100 31/24 Q1003=
Kochi      
VOCI 230300Z 27005KT 2000 RA SCT008 SCT012 FEW025CB OVC080 25/24 Q1011 NOSIG=
Kolkata    
VECC 230300Z 22005KT 3200 HZ SCT018 SCT100 31/27 Q1001 NOSIG=
Kozhikode  
VOCL 230300Z 29004KT 4000 -RA SCT006 SCT012 FEW025CB BKN090 25/24 Q1010 TEMPO 3000 RA=
Lucknow    
VILK 230300Z 00000KT 3000 HZ FEW100 34/25 Q1002 NOSIG=
Madurai    
VOMD 230330Z 29003KT 9999 FEW020 SCT100 33/23 Q1009 NOSIG=
Mohanbari  
VEMN 230300Z 02007KT 4000 HZ SCT020 FEW025CB BKN100 28/26 Q1003 NOSIG=
Mumbai     
VABB 230300Z 26011KT 3000 HZ SCT018 SCT025 FEW025TCU 31/26 Q1006 TEMPO 1500 SHRA=
Nagpur     
VANP 230300Z 27010KT 5000 HZ FEW020 SCT025 30/23 Q1006 NOSIG=
Patna      
VEPT 230300Z 10004KT 3000 HZ FEW018 SCT100 31/25 Q1000 NOSIG=
Raipur     
VERP 230130Z 28005KT 5000 HZ FEW025 SCT100 26/24 Q1005 BECMG 6000=
Safdarjung 
VIDD 230230Z 26002KT 3000 BR NSC 29/25 Q1002 NOSIG=
Shimla     
VISM 230300Z 00000KT 6000 NSC 22/17 Q1012=
Surat     
VASU 230300Z 25004KT 5000 HZ SCT020 SCT025 30/27 Q1005=
Trichy     
VOTR 230330Z 27012G22KT 5000 HZ FEW016 32/21 Q1007 NOSIG=
Trivandrum 
VOTV 230300Z 01004KT 4000 HZ FEW015 SCT020 FEW025CB 29/24 Q1010 BECMG 5000 HZ=
Udaipur    
VAUD 230300Z 18004KT 5000 HZ SCT015 SCT025 BKN080 26/22 Q1007 TEMPO 3000 RA=
Varanasi   
VEBN 230300Z 00000KT 2500 HZ FEW025 SCT100 33/25 Q1001 NOSIG=
Vizag      
VOVZ 230300Z VRB02KT 6000 FEW018 SCT090 29/25 Q1003 NOSIG =
Male       
VRMM 230300Z 20005KT 9999 FEW018 BKN280 30/25 Q1011 NOSIG=
Gan        
VRMG 230300Z 00000KT 9999 FEW018 FEW019CB BKN270 29/25 Q1012 CB S NOSIG=
Kathmandu  
VNKT 230320Z VRB02KT 7000 VCRA FEW015 FEW025CB SCT030 BKN100 25/19 Q1010 NOSIG CB TO W AND NW=
Dhaka      
VGHS 230230Z 09007KT 3500 HZ SCT012 BKN100 28/25 Q1002 NOSIG=
Colombo    
VCBI 230310Z 16004KT 120V210 9999 SCT016 FEW018CB 26/24 Q1011 NOSIG RMK SE/S/SW=
Karachi    
OPKC 230225Z 21010KT 6000 SCT020 BKN030 30/25 Q1001 NOSIG=
Lahore     
OPLA 230225Z 00000KT 2500 FU NSC 27/21 Q1003/A29.61 =
Leh        
VILH 230230Z VRB02KT 6000 CTHT FEW060 14/04 Q1024 NOSIG RMK AC=
Sri Nagar  
VISR 230230Z VRB02KT 6000 FEW025 20/17 Q1015 NOSIG=
Jammu      
VIJU 230230Z VRB02KT 6000 FEW030 29/22 Q1002 NOSIG=
Jodhpur    
VIJO 230230Z 19006KT 5000 BR SCT020 FEW030CB SCT100 29/25 Q1004 TEMPO TSRA=
Bhuj-Rudra 
VABJ 230130Z 25008KT 6000 SCT020 SCT090 28/25 Q1003 NOSIG =
Gorakhpur  
VEGK 230230Z 08005KT 6000 FEW030 BKN250 29/25 Q1002 NOSIG=
Agra       
VIAG 230130Z VRB02KT 6000 FEW030 29/26 Q1002 NOSIG=
Bagdogra   
VEBD 230230Z 05004KT 6000 SCT025 SCT100 30/27 Q1003 NOSIG=
Gwalior    
VIGR 230300Z 00000KT 5000 HZ SCT025 32/23 Q1003=
Pune       
VAPO 230230Z 23006KT 6000 SCT015 SCT025 25/23 Q1010 TEMPO 5000 -RA=
Chandigarh 
VICG 230300Z 34005KT 6000 SKC 29/27 Q1003 NOSIG=
Jamnagar   
VAJM 230230Z 24012KT 6000 FEW010 SCT020 31/26 Q1003 NOSIG=